sensor_id;sensor_type;location;lat;lon;timestamp;P1;durP1;ratioP1;P2;durP2;ratioP2
69979;SDS011;57318;56.232;43.944;2022-09-14T00:01:51;7.70;;;5.57;;
69979;SDS011;57318;56.232;43.944;2022-09-14T00:04:17;10.10;;;5.60;;
69979;SDS011;57318;56.232;43.944;2022-09-14T00:06:44;9.30;;;5.47;;
69979;SDS011;57318;56.232;43.944;2022-09-14T00:09:20;7.47;;;4.80;;
69979;SDS011;57318;56.232;43.944;2022-09-14T00:11:48;8.67;;;5.37;;
69979;SDS011;57318;56.232;43.944;2022-09-14T00:14:15;7.55;;;5.43;;
69979;SDS011;57318;56.232;43.944;2022-09-14T00:19:12;7.43;;;5.80;;
69979;SDS011;57318;56.232;43.944;2022-09-14T00:21:41;7.70;;;5.50;;
69979;SDS011;57318;56.232;43.944;2022-09-14T00:24:08;9.20;;;5.40;;
69979;SDS011;57318;56.232;43.944;2022-09-14T00:26:35;8.23;;;5.40;;
69979;SDS011;57318;56.232;43.944;2022-09-14T00:29:02;8.77;;;5.40;;
69979;SDS011;57318;56.232;43.944;2022-09-14T00:31:30;7.22;;;4.95;;
69979;SDS011;57318;56.232;43.944;2022-09-14T00:33:56;8.23;;;5.20;;
69979;SDS011;57318;56.232;43.944;2022-09-14T00:36:23;6.77;;;4.67;;
69979;SDS011;57318;56.232;43.944;2022-09-14T00:38:51;6.97;;;5.13;;
69979;SDS011;57318;56.232;43.944;2022-09-14T00:41:18;8.85;;;5.32;;
69979;SDS011;57318;56.232;43.944;2022-09-14T00:46:28;8.27;;;5.40;;
69979;SDS011;57318;56.232;43.944;2022-09-14T00:48:57;6.68;;;5.20;;
69979;SDS011;57318;56.232;43.944;2022-09-14T00:51:25;8.48;;;5.60;;
69979;SDS011;57318;56.232;43.944;2022-09-14T00:53:53;8.45;;;5.50;;
69979;SDS011;57318;56.232;43.944;2022-09-14T00:56:19;7.38;;;5.25;;
69979;SDS011;57318;56.232;43.944;2022-09-14T00:58:46;9.40;;;6.10;;
69979;SDS011;57318;56.232;43.944;2022-09-14T01:01:15;8.55;;;5.32;;
69979;SDS011;57318;56.232;43.944;2022-09-14T01:03:41;9.73;;;5.77;;
69979;SDS011;57318;56.232;43.944;2022-09-14T01:09:35;8.43;;;5.70;;
69979;SDS011;57318;56.232;43.944;2022-09-14T01:12:31;9.60;;;5.68;;
69979;SDS011;57318;56.232;43.944;2022-09-14T01:20:32;8.93;;;6.05;;
69979;SDS011;57318;56.232;43.944;2022-09-14T01:25:35;7.53;;;5.72;;
69979;SDS011;57318;56.232;43.944;2022-09-14T01:28:04;6.70;;;4.90;;
69979;SDS011;57318;56.232;43.944;2022-09-14T01:30:40;9.25;;;5.53;;
69979;SDS011;57318;56.232;43.944;2022-09-14T01:33:10;8.18;;;5.82;;
69979;SDS011;57318;56.232;43.944;2022-09-14T01:35:53;7.90;;;5.70;;
69979;SDS011;57318;56.232;43.944;2022-09-14T01:38:32;11.95;;;5.72;;
69979;SDS011;57318;56.232;43.944;2022-09-14T01:41:02;9.45;;;5.78;;
69979;SDS011;57318;56.232;43.944;2022-09-14T01:43:33;8.38;;;5.82;;
69979;SDS011;57318;56.232;43.944;2022-09-14T01:46:09;9.82;;;6.05;;
69979;SDS011;57318;56.232;43.944;2022-09-14T01:48:56;11.68;;;5.60;;
69979;SDS011;57318;56.232;43.944;2022-09-14T01:51:37;7.80;;;5.43;;
69979;SDS011;57318;56.232;43.944;2022-09-14T01:56:50;9.00;;;5.93;;
69979;SDS011;57318;56.232;43.944;2022-09-14T01:59:22;10.73;;;6.63;;
69979;SDS011;57318;56.232;43.944;2022-09-14T02:01:51;10.00;;;6.72;;
69979;SDS011;57318;56.232;43.944;2022-09-14T02:04:23;10.10;;;6.68;;
69979;SDS011;57318;56.232;43.944;2022-09-14T02:07:09;8.40;;;6.03;;
69979;SDS011;57318;56.232;43.944;2022-09-14T02:09:35;10.00;;;6.47;;
69979;SDS011;57318;56.232;43.944;2022-09-14T02:12:02;10.35;;;6.20;;
69979;SDS011;57318;56.232;43.944;2022-09-14T02:14:28;10.50;;;7.22;;
69979;SDS011;57318;56.232;43.944;2022-09-14T02:16:55;11.55;;;7.07;;
69979;SDS011;57318;56.232;43.944;2022-09-14T02:19:21;15.55;;;7.80;;
69979;SDS011;57318;56.232;43.944;2022-09-14T02:21:49;10.00;;;6.78;;
69979;SDS011;57318;56.232;43.944;2022-09-14T02:24:15;11.57;;;7.13;;
69979;SDS011;57318;56.232;43.944;2022-09-14T02:26:42;10.93;;;6.97;;
69979;SDS011;57318;56.232;43.944;2022-09-14T02:29:07;11.00;;;7.90;;
69979;SDS011;57318;56.232;43.944;2022-09-14T02:34:28;11.75;;;7.30;;
69979;SDS011;57318;56.232;43.944;2022-09-14T02:40:03;12.80;;;8.38;;
69979;SDS011;57318;56.232;43.944;2022-09-14T02:51:03;13.23;;;8.18;;
69979;SDS011;57318;56.232;43.944;2022-09-14T02:53:38;15.05;;;8.77;;
69979;SDS011;57318;56.232;43.944;2022-09-14T02:56:25;14.95;;;9.25;;
69979;SDS011;57318;56.232;43.944;2022-09-14T02:58:52;14.13;;;8.07;;
69979;SDS011;57318;56.232;43.944;2022-09-14T03:01:21;13.23;;;8.67;;
69979;SDS011;57318;56.232;43.944;2022-09-14T03:03:47;13.77;;;8.95;;
69979;SDS011;57318;56.232;43.944;2022-09-14T03:06:13;15.00;;;8.90;;
69979;SDS011;57318;56.232;43.944;2022-09-14T03:08:40;16.98;;;9.98;;
69979;SDS011;57318;56.232;43.944;2022-09-14T03:11:06;16.02;;;9.35;;
69979;SDS011;57318;56.232;43.944;2022-09-14T03:13:32;16.17;;;10.17;;
69979;SDS011;57318;56.232;43.944;2022-09-14T03:16:05;16.23;;;9.63;;
69979;SDS011;57318;56.232;43.944;2022-09-14T03:18:33;14.80;;;9.48;;
69979;SDS011;57318;56.232;43.944;2022-09-14T03:21:03;15.10;;;9.43;;
69979;SDS011;57318;56.232;43.944;2022-09-14T03:23:40;18.08;;;9.45;;
69979;SDS011;57318;56.232;43.944;2022-09-14T03:26:09;16.67;;;9.65;;
69979;SDS011;57318;56.232;43.944;2022-09-14T03:28:36;14.68;;;9.40;;
69979;SDS011;57318;56.232;43.944;2022-09-14T03:31:03;14.27;;;8.93;;
69979;SDS011;57318;56.232;43.944;2022-09-14T03:33:30;16.23;;;8.95;;
69979;SDS011;57318;56.232;43.944;2022-09-14T03:35:56;13.65;;;9.45;;
69979;SDS011;57318;56.232;43.944;2022-09-14T03:38:22;12.50;;;8.60;;
69979;SDS011;57318;56.232;43.944;2022-09-14T03:40:48;14.90;;;8.57;;
69979;SDS011;57318;56.232;43.944;2022-09-14T03:43:14;13.65;;;8.68;;
69979;SDS011;57318;56.232;43.944;2022-09-14T03:45:40;14.07;;;8.73;;
69979;SDS011;57318;56.232;43.944;2022-09-14T03:48:06;16.55;;;8.82;;
69979;SDS011;57318;56.232;43.944;2022-09-14T03:50:32;14.23;;;8.30;;
69979;SDS011;57318;56.232;43.944;2022-09-14T03:52:58;12.50;;;8.43;;
69979;SDS011;57318;56.232;43.944;2022-09-14T03:55:24;14.90;;;9.03;;
69979;SDS011;57318;56.232;43.944;2022-09-14T03:57:53;14.97;;;9.63;;
69979;SDS011;57318;56.232;43.944;2022-09-14T04:00:20;15.93;;;9.63;;
69979;SDS011;57318;56.232;43.944;2022-09-14T04:02:46;15.20;;;8.50;;
69979;SDS011;57318;56.232;43.944;2022-09-14T04:05:11;14.33;;;9.60;;
69979;SDS011;57318;56.232;43.944;2022-09-14T04:07:37;16.03;;;9.67;;
69979;SDS011;57318;56.232;43.944;2022-09-14T04:10:03;15.27;;;9.97;;
69979;SDS011;57318;56.232;43.944;2022-09-14T04:12:36;12.65;;;9.07;;
69979;SDS011;57318;56.232;43.944;2022-09-14T04:15:05;15.20;;;9.50;;
69979;SDS011;57318;56.232;43.944;2022-09-14T04:17:32;15.48;;;10.18;;
69979;SDS011;57318;56.232;43.944;2022-09-14T04:19:58;16.85;;;10.13;;
69979;SDS011;57318;56.232;43.944;2022-09-14T04:22:24;14.50;;;9.53;;
69979;SDS011;57318;56.232;43.944;2022-09-14T04:24:49;14.27;;;9.27;;
69979;SDS011;57318;56.232;43.944;2022-09-14T04:27:15;15.33;;;9.87;;
69979;SDS011;57318;56.232;43.944;2022-09-14T04:29:41;15.67;;;9.77;;
69979;SDS011;57318;56.232;43.944;2022-09-14T04:32:06;15.13;;;9.07;;
69979;SDS011;57318;56.232;43.944;2022-09-14T04:34:33;15.05;;;9.80;;
69979;SDS011;57318;56.232;43.944;2022-09-14T04:36:59;17.00;;;10.65;;
69979;SDS011;57318;56.232;43.944;2022-09-14T04:39:25;14.77;;;9.77;;
69979;SDS011;57318;56.232;43.944;2022-09-14T04:41:51;16.43;;;10.53;;
69979;SDS011;57318;56.232;43.944;2022-09-14T04:44:16;12.50;;;9.13;;
69979;SDS011;57318;56.232;43.944;2022-09-14T04:46:42;16.97;;;9.77;;
69979;SDS011;57318;56.232;43.944;2022-09-14T04:49:08;15.00;;;9.82;;
69979;SDS011;57318;56.232;43.944;2022-09-14T04:51:34;15.67;;;10.27;;
69979;SDS011;57318;56.232;43.944;2022-09-14T04:54:03;13.30;;;9.80;;
69979;SDS011;57318;56.232;43.944;2022-09-14T04:56:31;18.92;;;10.52;;
69979;SDS011;57318;56.232;43.944;2022-09-14T04:58:58;16.52;;;10.80;;
69979;SDS011;57318;56.232;43.944;2022-09-14T05:01:31;14.35;;;10.00;;
69979;SDS011;57318;56.232;43.944;2022-09-14T05:03:59;16.80;;;10.82;;
69979;SDS011;57318;56.232;43.944;2022-09-14T05:06:29;16.00;;;9.70;;
69979;SDS011;57318;56.232;43.944;2022-09-14T05:08:57;15.68;;;9.98;;
69979;SDS011;57318;56.232;43.944;2022-09-14T05:11:25;15.05;;;10.20;;
69979;SDS011;57318;56.232;43.944;2022-09-14T05:13:54;15.88;;;9.90;;
69979;SDS011;57318;56.232;43.944;2022-09-14T05:16:30;14.55;;;10.25;;
69979;SDS011;57318;56.232;43.944;2022-09-14T05:21:28;14.85;;;10.30;;
69979;SDS011;57318;56.232;43.944;2022-09-14T05:23:56;13.25;;;9.02;;
69979;SDS011;57318;56.232;43.944;2022-09-14T05:26:24;18.08;;;10.90;;
69979;SDS011;57318;56.232;43.944;2022-09-14T05:28:51;20.40;;;10.82;;
69979;SDS011;57318;56.232;43.944;2022-09-14T05:31:19;13.70;;;9.07;;
69979;SDS011;57318;56.232;43.944;2022-09-14T05:33:46;15.25;;;9.15;;
69979;SDS011;57318;56.232;43.944;2022-09-14T05:36:12;15.40;;;9.70;;
69979;SDS011;57318;56.232;43.944;2022-09-14T05:38:38;14.23;;;9.35;;
69979;SDS011;57318;56.232;43.944;2022-09-14T05:41:05;14.32;;;9.23;;
69979;SDS011;57318;56.232;43.944;2022-09-14T05:43:32;12.70;;;8.80;;
69979;SDS011;57318;56.232;43.944;2022-09-14T05:46:02;16.73;;;9.03;;
69979;SDS011;57318;56.232;43.944;2022-09-14T05:48:30;16.13;;;10.15;;
69979;SDS011;57318;56.232;43.944;2022-09-14T05:50:57;14.13;;;9.45;;
69979;SDS011;57318;56.232;43.944;2022-09-14T05:53:24;14.13;;;9.07;;
69979;SDS011;57318;56.232;43.944;2022-09-14T05:55:57;18.10;;;9.43;;
69979;SDS011;57318;56.232;43.944;2022-09-14T05:58:30;13.65;;;8.80;;
69979;SDS011;57318;56.232;43.944;2022-09-14T06:00:56;16.77;;;10.00;;
69979;SDS011;57318;56.232;43.944;2022-09-14T06:03:22;13.37;;;9.23;;
69979;SDS011;57318;56.232;43.944;2022-09-14T06:05:48;14.70;;;9.57;;
69979;SDS011;57318;56.232;43.944;2022-09-14T06:08:14;13.77;;;8.50;;
69979;SDS011;57318;56.232;43.944;2022-09-14T06:10:40;15.30;;;8.73;;
69979;SDS011;57318;56.232;43.944;2022-09-14T06:13:06;12.17;;;9.47;;
69979;SDS011;57318;56.232;43.944;2022-09-14T06:15:32;14.65;;;8.98;;
69979;SDS011;57318;56.232;43.944;2022-09-14T06:20:24;16.52;;;9.10;;
69979;SDS011;57318;56.232;43.944;2022-09-14T06:22:50;16.40;;;8.85;;
69979;SDS011;57318;56.232;43.944;2022-09-14T06:25:16;13.33;;;8.23;;
69979;SDS011;57318;56.232;43.944;2022-09-14T06:27:41;19.17;;;9.60;;
69979;SDS011;57318;56.232;43.944;2022-09-14T06:30:07;12.80;;;8.37;;
69979;SDS011;57318;56.232;43.944;2022-09-14T06:32:33;12.10;;;8.40;;
69979;SDS011;57318;56.232;43.944;2022-09-14T06:34:59;14.53;;;8.43;;
69979;SDS011;57318;56.232;43.944;2022-09-14T06:37:25;14.33;;;8.47;;
69979;SDS011;57318;56.232;43.944;2022-09-14T06:39:50;14.03;;;8.07;;
69979;SDS011;57318;56.232;43.944;2022-09-14T06:42:16;16.00;;;8.07;;
69979;SDS011;57318;56.232;43.944;2022-09-14T06:44:42;14.70;;;8.90;;
69979;SDS011;57318;56.232;43.944;2022-09-14T06:47:07;11.77;;;7.97;;
69979;SDS011;57318;56.232;43.944;2022-09-14T06:49:33;14.00;;;8.50;;
69979;SDS011;57318;56.232;43.944;2022-09-14T06:51:58;13.67;;;8.83;;
69979;SDS011;57318;56.232;43.944;2022-09-14T06:54:25;13.32;;;8.65;;
69979;SDS011;57318;56.232;43.944;2022-09-14T06:56:51;16.83;;;9.02;;
69979;SDS011;57318;56.232;43.944;2022-09-14T06:59:17;12.45;;;8.18;;
69979;SDS011;57318;56.232;43.944;2022-09-14T07:01:43;11.23;;;8.07;;
69979;SDS011;57318;56.232;43.944;2022-09-14T07:06:46;12.38;;;7.78;;
69979;SDS011;57318;56.232;43.944;2022-09-14T07:09:13;14.82;;;8.65;;
69979;SDS011;57318;56.232;43.944;2022-09-14T07:14:06;13.13;;;9.13;;
69979;SDS011;57318;56.232;43.944;2022-09-14T07:16:33;14.80;;;8.57;;
69979;SDS011;57318;56.232;43.944;2022-09-14T07:19:00;11.40;;;8.23;;
69979;SDS011;57318;56.232;43.944;2022-09-14T07:21:28;17.42;;;9.70;;
69979;SDS011;57318;56.232;43.944;2022-09-14T07:23:55;12.75;;;7.57;;
69979;SDS011;57318;56.232;43.944;2022-09-14T07:26:28;13.50;;;7.83;;
69979;SDS011;57318;56.232;43.944;2022-09-14T07:28:57;16.52;;;8.48;;
69979;SDS011;57318;56.232;43.944;2022-09-14T07:31:29;15.15;;;8.05;;
69979;SDS011;57318;56.232;43.944;2022-09-14T07:34:00;16.13;;;8.57;;
69979;SDS011;57318;56.232;43.944;2022-09-14T07:36:28;11.40;;;8.52;;
69979;SDS011;57318;56.232;43.944;2022-09-14T07:38:55;13.38;;;7.50;;
69979;SDS011;57318;56.232;43.944;2022-09-14T07:41:21;11.57;;;7.77;;
69979;SDS011;57318;56.232;43.944;2022-09-14T07:43:49;14.18;;;7.35;;
69979;SDS011;57318;56.232;43.944;2022-09-14T07:46:16;10.27;;;6.45;;
69979;SDS011;57318;56.232;43.944;2022-09-14T07:48:42;13.82;;;8.65;;
69979;SDS011;57318;56.232;43.944;2022-09-14T07:51:09;13.47;;;8.27;;
69979;SDS011;57318;56.232;43.944;2022-09-14T07:53:39;14.43;;;8.13;;
69979;SDS011;57318;56.232;43.944;2022-09-14T07:56:07;12.98;;;7.68;;
69979;SDS011;57318;56.232;43.944;2022-09-14T07:58:34;14.18;;;7.88;;
69979;SDS011;57318;56.232;43.944;2022-09-14T08:01:01;16.10;;;7.90;;
69979;SDS011;57318;56.232;43.944;2022-09-14T08:03:31;13.63;;;9.10;;
69979;SDS011;57318;56.232;43.944;2022-09-14T08:05:57;13.50;;;9.57;;
69979;SDS011;57318;56.232;43.944;2022-09-14T08:08:26;19.05;;;11.30;;
69979;SDS011;57318;56.232;43.944;2022-09-14T08:10:53;21.35;;;10.27;;
69979;SDS011;57318;56.232;43.944;2022-09-14T08:13:20;13.55;;;9.45;;
69979;SDS011;57318;56.232;43.944;2022-09-14T08:15:45;17.00;;;10.43;;
69979;SDS011;57318;56.232;43.944;2022-09-14T08:18:11;17.83;;;9.80;;
69979;SDS011;57318;56.232;43.944;2022-09-14T08:20:37;17.67;;;10.43;;
69979;SDS011;57318;56.232;43.944;2022-09-14T08:23:03;17.30;;;10.43;;
69979;SDS011;57318;56.232;43.944;2022-09-14T08:25:28;17.27;;;9.50;;
69979;SDS011;57318;56.232;43.944;2022-09-14T08:27:55;16.08;;;10.32;;
69979;SDS011;57318;56.232;43.944;2022-09-14T08:30:21;18.80;;;9.77;;
69979;SDS011;57318;56.232;43.944;2022-09-14T08:32:46;18.10;;;10.60;;
69979;SDS011;57318;56.232;43.944;2022-09-14T08:35:12;17.77;;;11.20;;
69979;SDS011;57318;56.232;43.944;2022-09-14T08:37:37;16.00;;;9.80;;
69979;SDS011;57318;56.232;43.944;2022-09-14T08:40:03;18.20;;;10.90;;
69979;SDS011;57318;56.232;43.944;2022-09-14T08:42:29;14.97;;;9.80;;
69979;SDS011;57318;56.232;43.944;2022-09-14T08:44:56;15.63;;;10.02;;
69979;SDS011;57318;56.232;43.944;2022-09-14T08:47:28;18.13;;;10.65;;
69979;SDS011;57318;56.232;43.944;2022-09-14T08:52:32;19.87;;;9.70;;
69979;SDS011;57318;56.232;43.944;2022-09-14T08:55:13;17.50;;;9.95;;
69979;SDS011;57318;56.232;43.944;2022-09-14T08:58:29;14.15;;;9.95;;
69979;SDS011;57318;56.232;43.944;2022-09-14T09:01:05;18.27;;;10.93;;
69979;SDS011;57318;56.232;43.944;2022-09-14T09:11:28;11.38;;;8.55;;
69979;SDS011;57318;56.232;43.944;2022-09-14T09:14:01;15.93;;;9.65;;
69979;SDS011;57318;56.232;43.944;2022-09-14T09:16:55;19.88;;;9.93;;
69979;SDS011;57318;56.232;43.944;2022-09-14T09:19:32;12.25;;;8.68;;
69979;SDS011;57318;56.232;43.944;2022-09-14T09:22:03;13.75;;;8.35;;
69979;SDS011;57318;56.232;43.944;2022-09-14T09:24:36;12.27;;;8.68;;
69979;SDS011;57318;56.232;43.944;2022-09-14T09:27:09;11.90;;;8.82;;
69979;SDS011;57318;56.232;43.944;2022-09-14T09:29:36;11.98;;;7.57;;
69979;SDS011;57318;56.232;43.944;2022-09-14T09:32:02;11.68;;;8.80;;
69979;SDS011;57318;56.232;43.944;2022-09-14T09:34:30;12.77;;;7.90;;
69979;SDS011;57318;56.232;43.944;2022-09-14T09:36:59;16.65;;;9.05;;
69979;SDS011;57318;56.232;43.944;2022-09-14T09:39:25;14.17;;;9.13;;
69979;SDS011;57318;56.232;43.944;2022-09-14T09:41:59;16.75;;;8.52;;
69979;SDS011;57318;56.232;43.944;2022-09-14T09:44:27;11.57;;;8.00;;
69979;SDS011;57318;56.232;43.944;2022-09-14T09:46:59;12.73;;;8.17;;
69979;SDS011;57318;56.232;43.944;2022-09-14T09:52:20;11.20;;;8.18;;
69979;SDS011;57318;56.232;43.944;2022-09-14T09:54:50;11.40;;;8.02;;
69979;SDS011;57318;56.232;43.944;2022-09-14T09:57:30;11.23;;;8.07;;
69979;SDS011;57318;56.232;43.944;2022-09-14T10:02:47;11.32;;;7.97;;
69979;SDS011;57318;56.232;43.944;2022-09-14T10:05:18;10.95;;;7.40;;
69979;SDS011;57318;56.232;43.944;2022-09-14T10:08:05;11.02;;;7.70;;
69979;SDS011;57318;56.232;43.944;2022-09-14T10:10:40;12.85;;;8.20;;
69979;SDS011;57318;56.232;43.944;2022-09-14T10:19:11;13.73;;;9.23;;
69979;SDS011;57318;56.232;43.944;2022-09-14T10:22:00;13.82;;;9.93;;
69979;SDS011;57318;56.232;43.944;2022-09-14T10:27:41;12.50;;;7.70;;
69979;SDS011;57318;56.232;43.944;2022-09-14T10:30:12;12.95;;;8.23;;
69979;SDS011;57318;56.232;43.944;2022-09-14T10:32:44;10.13;;;7.20;;
69979;SDS011;57318;56.232;43.944;2022-09-14T10:35:17;10.55;;;7.00;;
69979;SDS011;57318;56.232;43.944;2022-09-14T10:40:41;11.00;;;7.53;;
69979;SDS011;57318;56.232;43.944;2022-09-14T10:45:40;12.68;;;8.02;;
69979;SDS011;57318;56.232;43.944;2022-09-14T10:51:02;13.45;;;8.80;;
69979;SDS011;57318;56.232;43.944;2022-09-14T11:07:13;13.77;;;8.43;;
69979;SDS011;57318;56.232;43.944;2022-09-14T11:12:11;14.80;;;9.13;;
69979;SDS011;57318;56.232;43.944;2022-09-14T11:14:55;12.65;;;8.45;;
69979;SDS011;57318;56.232;43.944;2022-09-14T11:25:42;13.88;;;8.85;;
69979;SDS011;57318;56.232;43.944;2022-09-14T11:28:31;13.90;;;8.52;;
69979;SDS011;57318;56.232;43.944;2022-09-14T11:36:27;11.00;;;7.88;;
69979;SDS011;57318;56.232;43.944;2022-09-14T11:41:54;12.35;;;7.57;;
69979;SDS011;57318;56.232;43.944;2022-09-14T11:44:43;17.63;;;9.93;;
69979;SDS011;57318;56.232;43.944;2022-09-14T11:47:17;14.55;;;7.97;;
69979;SDS011;57318;56.232;43.944;2022-09-14T11:52:47;11.73;;;7.40;;
69979;SDS011;57318;56.232;43.944;2022-09-14T11:55:36;15.60;;;7.00;;
69979;SDS011;57318;56.232;43.944;2022-09-14T11:58:06;15.25;;;8.00;;
69979;SDS011;57318;56.232;43.944;2022-09-14T12:09:10;18.00;;;11.43;;
69979;SDS011;57318;56.232;43.944;2022-09-14T12:11:50;20.20;;;11.82;;
69979;SDS011;57318;56.232;43.944;2022-09-14T12:14:36;21.08;;;11.23;;
69979;SDS011;57318;56.232;43.944;2022-09-14T12:19:49;17.60;;;9.10;;
69979;SDS011;57318;56.232;43.944;2022-09-14T12:22:26;18.63;;;10.07;;
69979;SDS011;57318;56.232;43.944;2022-09-14T12:24:59;14.57;;;8.30;;
69979;SDS011;57318;56.232;43.944;2022-09-14T12:27:50;23.48;;;13.60;;
69979;SDS011;57318;56.232;43.944;2022-09-14T12:33:39;18.65;;;11.20;;
69979;SDS011;57318;56.232;43.944;2022-09-14T12:36:07;20.33;;;9.77;;
69979;SDS011;57318;56.232;43.944;2022-09-14T12:41:02;17.03;;;10.33;;
69979;SDS011;57318;56.232;43.944;2022-09-14T12:46:09;12.32;;;6.90;;
69979;SDS011;57318;56.232;43.944;2022-09-14T13:05:02;9.57;;;6.57;;
69979;SDS011;57318;56.232;43.944;2022-09-14T13:07:33;13.95;;;7.05;;
69979;SDS011;57318;56.232;43.944;2022-09-14T13:10:01;14.55;;;6.75;;
69979;SDS011;57318;56.232;43.944;2022-09-14T13:12:44;13.00;;;7.65;;
69979;SDS011;57318;56.232;43.944;2022-09-14T13:20:47;16.00;;;7.95;;
69979;SDS011;57318;56.232;43.944;2022-09-14T13:23:18;14.50;;;7.50;;
69979;SDS011;57318;56.232;43.944;2022-09-14T13:25:51;15.88;;;8.20;;
69979;SDS011;57318;56.232;43.944;2022-09-14T13:28:17;14.18;;;7.63;;
69979;SDS011;57318;56.232;43.944;2022-09-14T13:31:00;20.00;;;9.20;;
69979;SDS011;57318;56.232;43.944;2022-09-14T13:33:29;18.65;;;8.80;;
69979;SDS011;57318;56.232;43.944;2022-09-14T13:36:01;13.88;;;8.80;;
69979;SDS011;57318;56.232;43.944;2022-09-14T13:38:32;16.50;;;9.27;;
69979;SDS011;57318;56.232;43.944;2022-09-14T13:41:05;20.42;;;8.90;;
69979;SDS011;57318;56.232;43.944;2022-09-14T13:43:34;14.85;;;8.95;;
69979;SDS011;57318;56.232;43.944;2022-09-14T13:46:00;17.90;;;8.82;;
69979;SDS011;57318;56.232;43.944;2022-09-14T13:48:29;14.82;;;7.15;;
69979;SDS011;57318;56.232;43.944;2022-09-14T13:50:54;17.60;;;8.10;;
69979;SDS011;57318;56.232;43.944;2022-09-14T13:56:21;12.55;;;8.20;;
69979;SDS011;57318;56.232;43.944;2022-09-14T14:01:35;15.60;;;7.57;;
69979;SDS011;57318;56.232;43.944;2022-09-14T14:07:22;13.13;;;7.63;;
69979;SDS011;57318;56.232;43.944;2022-09-14T14:09:55;14.82;;;8.75;;
69979;SDS011;57318;56.232;43.944;2022-09-14T14:14:53;13.68;;;7.68;;
69979;SDS011;57318;56.232;43.944;2022-09-14T14:17:23;14.32;;;7.28;;
69979;SDS011;57318;56.232;43.944;2022-09-14T14:19:58;16.92;;;7.07;;
69979;SDS011;57318;56.232;43.944;2022-09-14T14:22:54;13.93;;;6.88;;
69979;SDS011;57318;56.232;43.944;2022-09-14T14:25:30;15.32;;;7.03;;
69979;SDS011;57318;56.232;43.944;2022-09-14T14:28:02;11.50;;;6.40;;
69979;SDS011;57318;56.232;43.944;2022-09-14T14:30:35;14.23;;;6.95;;
69979;SDS011;57318;56.232;43.944;2022-09-14T14:33:04;16.02;;;7.57;;
69979;SDS011;57318;56.232;43.944;2022-09-14T14:35:31;11.65;;;6.28;;
69979;SDS011;57318;56.232;43.944;2022-09-14T14:37:57;14.48;;;7.03;;
69979;SDS011;57318;56.232;43.944;2022-09-14T14:40:23;12.48;;;6.60;;
69979;SDS011;57318;56.232;43.944;2022-09-14T14:42:52;13.25;;;5.82;;
69979;SDS011;57318;56.232;43.944;2022-09-14T14:45:20;14.15;;;7.25;;
69979;SDS011;57318;56.232;43.944;2022-09-14T14:47:50;13.23;;;6.50;;
69979;SDS011;57318;56.232;43.944;2022-09-14T14:50:18;15.80;;;7.13;;
69979;SDS011;57318;56.232;43.944;2022-09-14T14:52:48;11.88;;;6.97;;
69979;SDS011;57318;56.232;43.944;2022-09-14T14:55:15;13.60;;;7.20;;
69979;SDS011;57318;56.232;43.944;2022-09-14T14:57:41;15.20;;;8.20;;
69979;SDS011;57318;56.232;43.944;2022-09-14T15:00:21;16.40;;;6.73;;
69979;SDS011;57318;56.232;43.944;2022-09-14T15:02:48;11.90;;;7.38;;
69979;SDS011;57318;56.232;43.944;2022-09-14T15:07:40;12.25;;;6.45;;
69979;SDS011;57318;56.232;43.944;2022-09-14T15:10:07;13.97;;;6.83;;
69979;SDS011;57318;56.232;43.944;2022-09-14T15:12:40;17.25;;;8.77;;
69979;SDS011;57318;56.232;43.944;2022-09-14T15:15:10;13.00;;;6.80;;
69979;SDS011;57318;56.232;43.944;2022-09-14T15:17:40;13.27;;;7.30;;
69979;SDS011;57318;56.232;43.944;2022-09-14T15:20:07;16.70;;;8.13;;
69979;SDS011;57318;56.232;43.944;2022-09-14T15:22:33;13.60;;;8.25;;
69979;SDS011;57318;56.232;43.944;2022-09-14T15:27:26;15.18;;;8.02;;
69979;SDS011;57318;56.232;43.944;2022-09-14T15:29:51;12.83;;;7.90;;
69979;SDS011;57318;56.232;43.944;2022-09-14T15:32:17;13.83;;;6.83;;
69979;SDS011;57318;56.232;43.944;2022-09-14T15:34:43;11.90;;;6.70;;
69979;SDS011;57318;56.232;43.944;2022-09-14T15:37:09;11.33;;;7.23;;
69979;SDS011;57318;56.232;43.944;2022-09-14T15:39:34;10.00;;;6.50;;
69979;SDS011;57318;56.232;43.944;2022-09-14T15:42:01;18.70;;;10.07;;
69979;SDS011;57318;56.232;43.944;2022-09-14T15:44:27;29.30;;;20.77;;
69979;SDS011;57318;56.232;43.944;2022-09-14T15:46:55;42.40;;;26.48;;
69979;SDS011;57318;56.232;43.944;2022-09-14T15:49:22;45.47;;;27.90;;
69979;SDS011;57318;56.232;43.944;2022-09-14T15:51:50;54.20;;;34.72;;
69979;SDS011;57318;56.232;43.944;2022-09-14T15:54:18;55.13;;;33.90;;
69979;SDS011;57318;56.232;43.944;2022-09-14T15:56:53;55.28;;;34.55;;
69979;SDS011;57318;56.232;43.944;2022-09-14T15:59:21;46.30;;;27.80;;
69979;SDS011;57318;56.232;43.944;2022-09-14T16:01:47;45.33;;;27.73;;
69979;SDS011;57318;56.232;43.944;2022-09-14T16:04:13;45.35;;;28.83;;
69979;SDS011;57318;56.232;43.944;2022-09-14T16:06:41;46.08;;;28.60;;
69979;SDS011;57318;56.232;43.944;2022-09-14T16:09:07;46.43;;;28.67;;
69979;SDS011;57318;56.232;43.944;2022-09-14T16:11:40;54.15;;;32.25;;
69979;SDS011;57318;56.232;43.944;2022-09-14T16:14:06;31.27;;;21.25;;
69979;SDS011;57318;56.232;43.944;2022-09-14T16:16:34;23.73;;;14.52;;
69979;SDS011;57318;56.232;43.944;2022-09-14T16:19:05;19.58;;;11.80;;
69979;SDS011;57318;56.232;43.944;2022-09-14T16:21:33;17.23;;;10.10;;
69979;SDS011;57318;56.232;43.944;2022-09-14T16:24:02;16.27;;;10.15;;
69979;SDS011;57318;56.232;43.944;2022-09-14T16:26:31;15.35;;;8.25;;
69979;SDS011;57318;56.232;43.944;2022-09-14T16:28:59;14.43;;;8.77;;
69979;SDS011;57318;56.232;43.944;2022-09-14T16:31:26;17.48;;;8.82;;
69979;SDS011;57318;56.232;43.944;2022-09-14T16:33:54;15.82;;;7.97;;
69979;SDS011;57318;56.232;43.944;2022-09-14T16:36:23;14.25;;;8.32;;
69979;SDS011;57318;56.232;43.944;2022-09-14T16:38:54;15.55;;;7.82;;
69979;SDS011;57318;56.232;43.944;2022-09-14T16:41:22;12.15;;;7.90;;
69979;SDS011;57318;56.232;43.944;2022-09-14T16:43:53;16.08;;;8.13;;
69979;SDS011;57318;56.232;43.944;2022-09-14T16:46:20;13.98;;;7.97;;
69979;SDS011;57318;56.232;43.944;2022-09-14T16:48:47;13.68;;;8.00;;
69979;SDS011;57318;56.232;43.944;2022-09-14T16:51:17;14.27;;;8.52;;
69979;SDS011;57318;56.232;43.944;2022-09-14T16:53:44;17.25;;;9.05;;
69979;SDS011;57318;56.232;43.944;2022-09-14T16:58:39;14.38;;;8.30;;
69979;SDS011;57318;56.232;43.944;2022-09-14T17:03:55;19.05;;;9.10;;
69979;SDS011;57318;56.232;43.944;2022-09-14T17:06:25;14.77;;;8.40;;
69979;SDS011;57318;56.232;43.944;2022-09-14T17:08:53;14.35;;;9.20;;
69979;SDS011;57318;56.232;43.944;2022-09-14T17:11:30;17.63;;;9.80;;
69979;SDS011;57318;56.232;43.944;2022-09-14T17:13:57;19.38;;;9.60;;
69979;SDS011;57318;56.232;43.944;2022-09-14T17:16:24;18.63;;;9.57;;
69979;SDS011;57318;56.232;43.944;2022-09-14T17:18:51;16.13;;;9.68;;
69979;SDS011;57318;56.232;43.944;2022-09-14T17:21:21;16.17;;;8.55;;
69979;SDS011;57318;56.232;43.944;2022-09-14T17:23:48;12.57;;;8.80;;
69979;SDS011;57318;56.232;43.944;2022-09-14T17:26:15;15.43;;;8.93;;
69979;SDS011;57318;56.232;43.944;2022-09-14T17:28:43;17.90;;;9.85;;
69979;SDS011;57318;56.232;43.944;2022-09-14T17:31:12;15.65;;;9.52;;